Time,TemperatureF,DewpointF,PressureIn,WindDirection,WindDirectionDegrees,WindSpeedMPH,WindSpeedGustMPH,Humidity,HourlyPrecipIn,Conditions,Clouds,dailyrainin,SoftwareType,DateUTC
2013-07-31 00:17:00,68.9,61.0,30.08,NNE,22,0.0,0.0,76,0.00,,,0.00,open2300-1.11,2013-07-31 05:17:00,
2013-07-31 01:17:00,67.8,60.8,30.08,NNE,22,0.0,0.0,78,0.00,,,0.00,open2300-1.11,2013-07-31 06:17:00,
2013-07-31 02:17:00,66.7,60.4,30.07,NNE,22,0.0,0.0,80,0.00,,,0.00,open2300-1.11,2013-07-31 07:17:00,
2013-07-31 03:17:00,65.8,59.9,30.08,NNE,22,0.0,0.0,81,0.00,,,0.00,open2300-1.11,2013-07-31 08:17:00,
2013-07-31 04:17:00,64.8,58.8,30.09,NNE,22,0.0,0.0,81,0.00,,,0.00,open2300-1.11,2013-07-31 09:17:00,
2013-07-31 05:17:00,64.0,58.8,30.08,NNE,22,0.0,0.0,83,0.00,,,0.00,open2300-1.11,2013-07-31 10:17:00,
2013-07-31 06:17:00,63.7,58.8,30.07,SSW,202,0.0,0.0,84,0.00,,,0.00,open2300-1.11,2013-07-31 11:17:00,
2013-07-31 07:17:00,63.5,58.6,30.12,WSW,247,0.0,0.0,84,0.00,,,0.00,open2300-1.11,2013-07-31 12:17:00,
2013-07-31 08:17:00,67.1,62.1,30.14,NW,315,0.0,0.0,84,0.00,,,0.00,open2300-1.11,2013-07-31 13:17:00,
2013-07-31 09:17:00,71.4,64.6,30.13,NE,45,0.0,0.0,79,0.00,,,0.00,open2300-1.11,2013-07-31 14:17:00,
2013-07-31 10:17:00,77.2,65.4,30.12,NW,315,0.0,0.0,67,0.00,,,0.00,open2300-1.11,2013-07-31 15:17:00,
2013-07-31 11:17:00,77.7,65.4,30.11,SSE,157,0.0,0.0,66,0.00,,,0.00,open2300-1.11,2013-07-31 16:17:00,
2013-07-31 12:17:00,82.0,65.7,30.11,West,270,0.0,0.0,58,0.00,,,0.00,open2300-1.11,2013-07-31 17:17:00,
2013-07-31 13:17:00,85.1,66.6,30.10,NW,315,0.0,0.0,54,0.00,,,0.00,open2300-1.11,2013-07-31 18:17:00,
2013-07-31 14:17:00,84.7,65.7,30.09,WNW,292,0.0,0.0,53,0.00,,,0.00,open2300-1.11,2013-07-31 19:17:00,
2013-07-31 15:17:00,88.0,67.6,30.08,ENE,67,0.0,0.0,51,0.00,,,0.00,open2300-1.11,2013-07-31 20:17:00,
2013-07-31 16:17:00,87.4,67.1,30.07,NE,45,0.0,0.0,51,0.00,,,0.00,open2300-1.11,2013-07-31 21:17:00,
2013-07-31 17:17:00,85.6,66.0,30.04,NNW,337,0.0,0.0,52,0.00,,,0.00,open2300-1.11,2013-07-31 22:17:00,
2013-07-31 18:17:00,84.7,66.8,30.04,ENE,67,0.0,0.0,55,0.00,,,0.00,open2300-1.11,2013-07-31 23:17:00,
2013-07-31 19:17:00,84.4,67.0,30.04,ENE,67,0.0,0.0,56,0.00,,,0.00,open2300-1.11,2013-08-01 00:17:00,
2013-07-31 20:17:00,81.9,65.6,30.05,ESE,112,0.0,0.0,58,0.00,,,0.00,open2300-1.11,2013-08-01 01:17:00,
2013-07-31 21:17:00,79.2,65.1,30.05,ESE,112,0.0,0.0,62,0.00,,,0.00,open2300-1.11,2013-08-01 02:17:00,
2013-07-31 22:17:00,76.3,64.1,30.07,ESE,112,0.0,0.0,66,0.00,,,0.00,open2300-1.11,2013-08-01 03:17:00,
2013-07-31 23:17:00,73.6,63.7,30.09,SE,135,0.0,0.0,71,0.00,,,0.00,open2300-1.11,2013-08-01 04:17:00,